sensor_id;sensor_type;location;lat;lon;timestamp;P1;durP1;ratioP1;P2;durP2;ratioP2
11500;SDS011;5807;51.606;7.624;2022-12-29T00:02:11;1.97;;;1.80;;
11500;SDS011;5807;51.606;7.624;2022-12-29T00:04:38;1.90;;;1.40;;
11500;SDS011;5807;51.606;7.624;2022-12-29T00:07:06;1.47;;;1.47;;
11500;SDS011;5807;51.606;7.624;2022-12-29T00:09:33;1.27;;;1.27;;
11500;SDS011;5807;51.606;7.624;2022-12-29T00:12:00;1.33;;;1.33;;
11500;SDS011;5807;51.606;7.624;2022-12-29T00:14:29;1.27;;;1.27;;
11500;SDS011;5807;51.606;7.624;2022-12-29T00:17:14;1.47;;;1.20;;
11500;SDS011;5807;51.606;7.624;2022-12-29T00:19:41;1.60;;;1.50;;
11500;SDS011;5807;51.606;7.624;2022-12-29T00:22:26;1.13;;;1.13;;
11500;SDS011;5807;51.606;7.624;2022-12-29T00:25:11;1.30;;;1.30;;
11500;SDS011;5807;51.606;7.624;2022-12-29T00:27:56;3.20;;;1.27;;
11500;SDS011;5807;51.606;7.624;2022-12-29T00:30:43;1.13;;;1.13;;
11500;SDS011;5807;51.606;7.624;2022-12-29T00:33:28;1.20;;;1.20;;
11500;SDS011;5807;51.606;7.624;2022-12-29T00:36:14;1.17;;;1.17;;
11500;SDS011;5807;51.606;7.624;2022-12-29T00:38:43;1.33;;;1.10;;
11500;SDS011;5807;51.606;7.624;2022-12-29T00:41:29;1.07;;;1.07;;
11500;SDS011;5807;51.606;7.624;2022-12-29T00:44:14;1.07;;;0.90;;
11500;SDS011;5807;51.606;7.624;2022-12-29T00:46:42;1.10;;;1.10;;
11500;SDS011;5807;51.606;7.624;2022-12-29T00:49:10;2.03;;;1.20;;
11500;SDS011;5807;51.606;7.624;2022-12-29T00:51:55;1.10;;;1.10;;
11500;SDS011;5807;51.606;7.624;2022-12-29T00:54:23;1.47;;;1.40;;
11500;SDS011;5807;51.606;7.624;2022-12-29T00:56:52;1.23;;;0.90;;
11500;SDS011;5807;51.606;7.624;2022-12-29T00:59:19;1.20;;;1.10;;
11500;SDS011;5807;51.606;7.624;2022-12-29T01:01:50;0.80;;;0.80;;
11500;SDS011;5807;51.606;7.624;2022-12-29T01:04:18;0.90;;;0.90;;
11500;SDS011;5807;51.606;7.624;2022-12-29T01:06:45;1.00;;;1.00;;
11500;SDS011;5807;51.606;7.624;2022-12-29T01:09:12;1.03;;;0.87;;
11500;SDS011;5807;51.606;7.624;2022-12-29T01:11:57;0.90;;;0.90;;
11500;SDS011;5807;51.606;7.624;2022-12-29T01:14:24;1.10;;;1.10;;
11500;SDS011;5807;51.606;7.624;2022-12-29T01:16:53;1.03;;;1.03;;
11500;SDS011;5807;51.606;7.624;2022-12-29T01:19:20;0.80;;;0.80;;
11500;SDS011;5807;51.606;7.624;2022-12-29T01:21:48;1.67;;;1.00;;
11500;SDS011;5807;51.606;7.624;2022-12-29T01:24:16;0.80;;;0.80;;
11500;SDS011;5807;51.606;7.624;2022-12-29T01:26:43;0.93;;;0.93;;
11500;SDS011;5807;51.606;7.624;2022-12-29T01:29:11;0.80;;;0.80;;
11500;SDS011;5807;51.606;7.624;2022-12-29T01:31:38;1.00;;;1.00;;
11500;SDS011;5807;51.606;7.624;2022-12-29T01:34:06;0.80;;;0.80;;
11500;SDS011;5807;51.606;7.624;2022-12-29T01:36:33;1.53;;;0.83;;
11500;SDS011;5807;51.606;7.624;2022-12-29T01:39:00;0.80;;;0.80;;
11500;SDS011;5807;51.606;7.624;2022-12-29T01:41:28;0.97;;;0.97;;
11500;SDS011;5807;51.606;7.624;2022-12-29T01:43:55;0.97;;;0.97;;
11500;SDS011;5807;51.606;7.624;2022-12-29T01:46:25;0.90;;;0.90;;
11500;SDS011;5807;51.606;7.624;2022-12-29T01:48:54;1.10;;;1.10;;
11500;SDS011;5807;51.606;7.624;2022-12-29T01:51:23;0.83;;;0.83;;
11500;SDS011;5807;51.606;7.624;2022-12-29T01:53:52;0.80;;;0.80;;
11500;SDS011;5807;51.606;7.624;2022-12-29T01:56:21;0.90;;;0.90;;
11500;SDS011;5807;51.606;7.624;2022-12-29T01:58:49;1.10;;;0.83;;
11500;SDS011;5807;51.606;7.624;2022-12-29T02:01:18;0.90;;;0.90;;
11500;SDS011;5807;51.606;7.624;2022-12-29T02:03:46;0.63;;;0.63;;
11500;SDS011;5807;51.606;7.624;2022-12-29T02:06:14;0.90;;;0.90;;
11500;SDS011;5807;51.606;7.624;2022-12-29T02:08:44;0.80;;;0.80;;
11500;SDS011;5807;51.606;7.624;2022-12-29T02:11:12;0.70;;;0.70;;
11500;SDS011;5807;51.606;7.624;2022-12-29T02:13:40;0.80;;;0.80;;
11500;SDS011;5807;51.606;7.624;2022-12-29T02:16:10;2.57;;;0.70;;
11500;SDS011;5807;51.606;7.624;2022-12-29T02:18:42;0.80;;;0.80;;
11500;SDS011;5807;51.606;7.624;2022-12-29T02:21:28;0.87;;;0.80;;
11500;SDS011;5807;51.606;7.624;2022-12-29T02:27:03;0.80;;;0.80;;
11500;SDS011;5807;51.606;7.624;2022-12-29T02:29:42;0.60;;;0.60;;
11500;SDS011;5807;51.606;7.624;2022-12-29T02:32:13;0.80;;;0.80;;
11500;SDS011;5807;51.606;7.624;2022-12-29T02:34:47;0.90;;;0.90;;
11500;SDS011;5807;51.606;7.624;2022-12-29T02:37:17;0.60;;;0.60;;
11500;SDS011;5807;51.606;7.624;2022-12-29T02:39:48;0.90;;;0.90;;
11500;SDS011;5807;51.606;7.624;2022-12-29T02:42:19;0.80;;;0.80;;
11500;SDS011;5807;51.606;7.624;2022-12-29T02:44:51;1.00;;;1.00;;
11500;SDS011;5807;51.606;7.624;2022-12-29T02:47:23;0.70;;;0.70;;
11500;SDS011;5807;51.606;7.624;2022-12-29T02:49:54;0.80;;;0.80;;
11500;SDS011;5807;51.606;7.624;2022-12-29T02:52:25;0.90;;;0.90;;
11500;SDS011;5807;51.606;7.624;2022-12-29T02:54:53;0.70;;;0.70;;
11500;SDS011;5807;51.606;7.624;2022-12-29T02:57:28;0.80;;;0.80;;
11500;SDS011;5807;51.606;7.624;2022-12-29T02:59:56;0.73;;;0.73;;
11500;SDS011;5807;51.606;7.624;2022-12-29T03:02:29;0.80;;;0.80;;
11500;SDS011;5807;51.606;7.624;2022-12-29T03:05:03;1.03;;;0.83;;
11500;SDS011;5807;51.606;7.624;2022-12-29T03:07:34;0.77;;;0.77;;
11500;SDS011;5807;51.606;7.624;2022-12-29T03:10:04;1.70;;;1.00;;
11500;SDS011;5807;51.606;7.624;2022-12-29T03:12:36;0.70;;;0.70;;
11500;SDS011;5807;51.606;7.624;2022-12-29T03:15:22;1.67;;;1.67;;
11500;SDS011;5807;51.606;7.624;2022-12-29T03:18:10;1.03;;;1.00;;
11500;SDS011;5807;51.606;7.624;2022-12-29T03:20:41;1.13;;;1.00;;
11500;SDS011;5807;51.606;7.624;2022-12-29T03:23:11;0.80;;;0.80;;
11500;SDS011;5807;51.606;7.624;2022-12-29T03:25:40;0.63;;;0.63;;
11500;SDS011;5807;51.606;7.624;2022-12-29T03:28:09;1.20;;;1.20;;
11500;SDS011;5807;51.606;7.624;2022-12-29T03:30:38;0.90;;;0.90;;
11500;SDS011;5807;51.606;7.624;2022-12-29T03:33:07;0.90;;;0.90;;
11500;SDS011;5807;51.606;7.624;2022-12-29T03:35:38;1.90;;;1.23;;
11500;SDS011;5807;51.606;7.624;2022-12-29T03:38:08;1.00;;;1.00;;
11500;SDS011;5807;51.606;7.624;2022-12-29T03:40:37;1.40;;;1.13;;
11500;SDS011;5807;51.606;7.624;2022-12-29T03:43:05;0.90;;;0.90;;
11500;SDS011;5807;51.606;7.624;2022-12-29T03:45:32;1.17;;;1.17;;
11500;SDS011;5807;51.606;7.624;2022-12-29T03:47:59;1.13;;;1.10;;
11500;SDS011;5807;51.606;7.624;2022-12-29T03:50:26;0.90;;;0.90;;
11500;SDS011;5807;51.606;7.624;2022-12-29T03:52:55;1.13;;;0.87;;
11500;SDS011;5807;51.606;7.624;2022-12-29T03:55:22;0.90;;;0.90;;
11500;SDS011;5807;51.606;7.624;2022-12-29T03:57:49;1.10;;;1.00;;
11500;SDS011;5807;51.606;7.624;2022-12-29T04:00:16;0.90;;;0.90;;
11500;SDS011;5807;51.606;7.624;2022-12-29T04:02:43;0.97;;;0.97;;
11500;SDS011;5807;51.606;7.624;2022-12-29T04:05:10;1.03;;;1.00;;
11500;SDS011;5807;51.606;7.624;2022-12-29T04:07:37;1.20;;;1.10;;
11500;SDS011;5807;51.606;7.624;2022-12-29T04:10:06;0.90;;;0.90;;
11500;SDS011;5807;51.606;7.624;2022-12-29T04:12:33;1.53;;;1.30;;
11500;SDS011;5807;51.606;7.624;2022-12-29T04:15:00;1.00;;;1.00;;
11500;SDS011;5807;51.606;7.624;2022-12-29T04:17:27;1.30;;;1.20;;
11500;SDS011;5807;51.606;7.624;2022-12-29T04:19:54;1.20;;;1.20;;
11500;SDS011;5807;51.606;7.624;2022-12-29T04:22:41;1.10;;;1.10;;
11500;SDS011;5807;51.606;7.624;2022-12-29T04:25:10;2.33;;;1.03;;
11500;SDS011;5807;51.606;7.624;2022-12-29T04:27:37;1.00;;;1.00;;
11500;SDS011;5807;51.606;7.624;2022-12-29T04:30:04;0.90;;;0.90;;
11500;SDS011;5807;51.606;7.624;2022-12-29T04:32:32;1.90;;;1.00;;
11500;SDS011;5807;51.606;7.624;2022-12-29T04:34:59;0.90;;;0.90;;
11500;SDS011;5807;51.606;7.624;2022-12-29T04:37:26;1.00;;;1.00;;
11500;SDS011;5807;51.606;7.624;2022-12-29T04:39:53;1.07;;;0.90;;
11500;SDS011;5807;51.606;7.624;2022-12-29T04:42:21;1.00;;;1.00;;
11500;SDS011;5807;51.606;7.624;2022-12-29T04:44:48;1.00;;;1.00;;
11500;SDS011;5807;51.606;7.624;2022-12-29T04:47:15;1.00;;;1.00;;
11500;SDS011;5807;51.606;7.624;2022-12-29T04:49:42;1.10;;;1.10;;
11500;SDS011;5807;51.606;7.624;2022-12-29T04:52:09;1.00;;;1.00;;
11500;SDS011;5807;51.606;7.624;2022-12-29T04:54:36;1.33;;;1.10;;
11500;SDS011;5807;51.606;7.624;2022-12-29T04:57:04;1.60;;;1.07;;
11500;SDS011;5807;51.606;7.624;2022-12-29T04:59:33;0.90;;;0.90;;
11500;SDS011;5807;51.606;7.624;2022-12-29T05:02:00;1.10;;;1.10;;
11500;SDS011;5807;51.606;7.624;2022-12-29T05:04:27;0.87;;;0.87;;
11500;SDS011;5807;51.606;7.624;2022-12-29T05:06:54;0.80;;;0.80;;
11500;SDS011;5807;51.606;7.624;2022-12-29T05:09:21;0.90;;;0.90;;
11500;SDS011;5807;51.606;7.624;2022-12-29T05:11:49;0.90;;;0.90;;
11500;SDS011;5807;51.606;7.624;2022-12-29T05:14:16;0.80;;;0.80;;
11500;SDS011;5807;51.606;7.624;2022-12-29T05:16:44;1.30;;;0.90;;
11500;SDS011;5807;51.606;7.624;2022-12-29T05:19:11;0.90;;;0.90;;
11500;SDS011;5807;51.606;7.624;2022-12-29T05:21:39;1.50;;;0.90;;
11500;SDS011;5807;51.606;7.624;2022-12-29T05:24:06;1.00;;;1.00;;
11500;SDS011;5807;51.606;7.624;2022-12-29T05:26:33;0.93;;;0.93;;
11500;SDS011;5807;51.606;7.624;2022-12-29T05:29:00;0.80;;;0.80;;
11500;SDS011;5807;51.606;7.624;2022-12-29T05:31:27;0.87;;;0.87;;
11500;SDS011;5807;51.606;7.624;2022-12-29T05:33:56;1.00;;;1.00;;
11500;SDS011;5807;51.606;7.624;2022-12-29T05:36:23;1.23;;;1.13;;
11500;SDS011;5807;51.606;7.624;2022-12-29T05:38:50;0.80;;;0.80;;
11500;SDS011;5807;51.606;7.624;2022-12-29T05:41:17;0.73;;;0.73;;
11500;SDS011;5807;51.606;7.624;2022-12-29T05:43:44;1.10;;;1.10;;
11500;SDS011;5807;51.606;7.624;2022-12-29T05:46:11;3.23;;;1.00;;
11500;SDS011;5807;51.606;7.624;2022-12-29T05:48:38;1.33;;;1.27;;
11500;SDS011;5807;51.606;7.624;2022-12-29T05:51:06;0.90;;;0.90;;
11500;SDS011;5807;51.606;7.624;2022-12-29T05:53:33;1.30;;;1.10;;
11500;SDS011;5807;51.606;7.624;2022-12-29T05:56:00;1.13;;;1.13;;
11500;SDS011;5807;51.606;7.624;2022-12-29T05:58:28;1.07;;;0.80;;
11500;SDS011;5807;51.606;7.624;2022-12-29T06:00:55;0.73;;;0.73;;
11500;SDS011;5807;51.606;7.624;2022-12-29T06:03:22;0.80;;;0.80;;
11500;SDS011;5807;51.606;7.624;2022-12-29T06:05:49;0.90;;;0.90;;
11500;SDS011;5807;51.606;7.624;2022-12-29T06:08:17;0.80;;;0.80;;
11500;SDS011;5807;51.606;7.624;2022-12-29T06:10:44;1.33;;;1.23;;
11500;SDS011;5807;51.606;7.624;2022-12-29T06:13:11;1.00;;;0.90;;
11500;SDS011;5807;51.606;7.624;2022-12-29T06:15:38;0.90;;;0.90;;
11500;SDS011;5807;51.606;7.624;2022-12-29T06:18:05;0.80;;;0.80;;
11500;SDS011;5807;51.606;7.624;2022-12-29T06:20:32;2.77;;;1.33;;
11500;SDS011;5807;51.606;7.624;2022-12-29T06:22:59;1.80;;;1.10;;
11500;SDS011;5807;51.606;7.624;2022-12-29T06:25:28;0.90;;;0.90;;
11500;SDS011;5807;51.606;7.624;2022-12-29T06:27:57;1.20;;;1.20;;
11500;SDS011;5807;51.606;7.624;2022-12-29T06:30:24;0.97;;;0.80;;
11500;SDS011;5807;51.606;7.624;2022-12-29T06:32:51;0.97;;;0.97;;
11500;SDS011;5807;51.606;7.624;2022-12-29T06:35:19;1.07;;;1.00;;
11500;SDS011;5807;51.606;7.624;2022-12-29T06:37:47;1.30;;;1.20;;
11500;SDS011;5807;51.606;7.624;2022-12-29T06:40:14;1.23;;;1.20;;
11500;SDS011;5807;51.606;7.624;2022-12-29T06:42:42;1.17;;;1.10;;
11500;SDS011;5807;51.606;7.624;2022-12-29T06:45:10;1.03;;;1.00;;
11500;SDS011;5807;51.606;7.624;2022-12-29T06:47:37;1.23;;;0.90;;
11500;SDS011;5807;51.606;7.624;2022-12-29T06:50:04;0.80;;;0.80;;
11500;SDS011;5807;51.606;7.624;2022-12-29T06:52:32;1.60;;;1.10;;
11500;SDS011;5807;51.606;7.624;2022-12-29T06:54:59;1.60;;;1.10;;
11500;SDS011;5807;51.606;7.624;2022-12-29T06:57:26;1.67;;;1.10;;
11500;SDS011;5807;51.606;7.624;2022-12-29T06:59:54;1.87;;;1.77;;
11500;SDS011;5807;51.606;7.624;2022-12-29T07:02:21;1.27;;;1.20;;
11500;SDS011;5807;51.606;7.624;2022-12-29T07:04:50;1.33;;;1.23;;
11500;SDS011;5807;51.606;7.624;2022-12-29T07:07:17;2.37;;;1.43;;
11500;SDS011;5807;51.606;7.624;2022-12-29T07:09:44;1.47;;;1.20;;
11500;SDS011;5807;51.606;7.624;2022-12-29T07:12:11;1.43;;;1.13;;
11500;SDS011;5807;51.606;7.624;2022-12-29T07:14:38;1.27;;;1.10;;
11500;SDS011;5807;51.606;7.624;2022-12-29T07:17:07;1.07;;;1.07;;
11500;SDS011;5807;51.606;7.624;2022-12-29T07:19:34;0.97;;;0.97;;
11500;SDS011;5807;51.606;7.624;2022-12-29T07:22:01;1.40;;;1.30;;
11500;SDS011;5807;51.606;7.624;2022-12-29T07:24:28;1.30;;;1.00;;
11500;SDS011;5807;51.606;7.624;2022-12-29T07:26:55;1.10;;;1.10;;
11500;SDS011;5807;51.606;7.624;2022-12-29T07:29:22;1.37;;;1.30;;
11500;SDS011;5807;51.606;7.624;2022-12-29T07:31:49;1.30;;;1.03;;
11500;SDS011;5807;51.606;7.624;2022-12-29T07:34:18;1.93;;;1.23;;
11500;SDS011;5807;51.606;7.624;2022-12-29T07:36:45;2.40;;;1.20;;
11500;SDS011;5807;51.606;7.624;2022-12-29T07:39:12;1.00;;;1.00;;
11500;SDS011;5807;51.606;7.624;2022-12-29T07:41:39;1.43;;;0.90;;
11500;SDS011;5807;51.606;7.624;2022-12-29T07:44:08;1.03;;;1.03;;
11500;SDS011;5807;51.606;7.624;2022-12-29T07:46:35;0.80;;;0.80;;
11500;SDS011;5807;51.606;7.624;2022-12-29T07:49:02;2.10;;;1.10;;
11500;SDS011;5807;51.606;7.624;2022-12-29T07:51:31;1.70;;;1.00;;
11500;SDS011;5807;51.606;7.624;2022-12-29T07:53:58;3.40;;;1.13;;
11500;SDS011;5807;51.606;7.624;2022-12-29T07:56:25;0.83;;;0.83;;
11500;SDS011;5807;51.606;7.624;2022-12-29T07:58:52;0.90;;;0.90;;
11500;SDS011;5807;51.606;7.624;2022-12-29T08:01:19;1.40;;;1.10;;
11500;SDS011;5807;51.606;7.624;2022-12-29T08:03:48;1.63;;;0.90;;
11500;SDS011;5807;51.606;7.624;2022-12-29T08:06:15;1.93;;;1.20;;
11500;SDS011;5807;51.606;7.624;2022-12-29T08:08:44;3.87;;;1.30;;
11500;SDS011;5807;51.606;7.624;2022-12-29T08:11:11;1.00;;;1.00;;
11500;SDS011;5807;51.606;7.624;2022-12-29T08:13:39;1.53;;;1.03;;
11500;SDS011;5807;51.606;7.624;2022-12-29T08:16:06;2.63;;;1.10;;
11500;SDS011;5807;51.606;7.624;2022-12-29T08:18:33;3.00;;;1.10;;
11500;SDS011;5807;51.606;7.624;2022-12-29T08:21:01;3.70;;;1.47;;
11500;SDS011;5807;51.606;7.624;2022-12-29T08:23:28;1.10;;;1.10;;
11500;SDS011;5807;51.606;7.624;2022-12-29T08:25:58;1.43;;;1.30;;
11500;SDS011;5807;51.606;7.624;2022-12-29T08:28:25;1.77;;;1.30;;
11500;SDS011;5807;51.606;7.624;2022-12-29T08:30:52;2.23;;;1.37;;
11500;SDS011;5807;51.606;7.624;2022-12-29T08:33:19;3.23;;;1.10;;
11500;SDS011;5807;51.606;7.624;2022-12-29T08:35:46;4.57;;;1.20;;
11500;SDS011;5807;51.606;7.624;2022-12-29T08:38:13;2.73;;;1.37;;
11500;SDS011;5807;51.606;7.624;2022-12-29T08:40:40;6.23;;;1.80;;
11500;SDS011;5807;51.606;7.624;2022-12-29T08:43:10;3.07;;;1.30;;
11500;SDS011;5807;51.606;7.624;2022-12-29T08:45:37;0.90;;;0.90;;
11500;SDS011;5807;51.606;7.624;2022-12-29T08:48:04;5.40;;;1.70;;
11500;SDS011;5807;51.606;7.624;2022-12-29T08:50:31;5.40;;;1.50;;
11500;SDS011;5807;51.606;7.624;2022-12-29T08:52:58;2.20;;;1.17;;
11500;SDS011;5807;51.606;7.624;2022-12-29T08:55:26;2.17;;;1.30;;
11500;SDS011;5807;51.606;7.624;2022-12-29T08:57:53;4.10;;;1.87;;
11500;SDS011;5807;51.606;7.624;2022-12-29T09:00:21;1.70;;;1.40;;
11500;SDS011;5807;51.606;7.624;2022-12-29T09:02:48;3.30;;;1.50;;
11500;SDS011;5807;51.606;7.624;2022-12-29T09:05:15;2.63;;;1.33;;
11500;SDS011;5807;51.606;7.624;2022-12-29T09:07:42;1.90;;;1.20;;
11500;SDS011;5807;51.606;7.624;2022-12-29T09:10:09;2.87;;;1.37;;
11500;SDS011;5807;51.606;7.624;2022-12-29T09:12:38;2.37;;;1.77;;
11500;SDS011;5807;51.606;7.624;2022-12-29T09:15:05;4.53;;;1.40;;
11500;SDS011;5807;51.606;7.624;2022-12-29T09:17:35;3.17;;;1.73;;
11500;SDS011;5807;51.606;7.624;2022-12-29T09:20:09;2.50;;;2.03;;
11500;SDS011;5807;51.606;7.624;2022-12-29T09:22:36;3.13;;;1.50;;
11500;SDS011;5807;51.606;7.624;2022-12-29T09:25:04;1.40;;;1.30;;
11500;SDS011;5807;51.606;7.624;2022-12-29T09:27:31;7.00;;;1.50;;
11500;SDS011;5807;51.606;7.624;2022-12-29T09:29:58;1.50;;;1.40;;
11500;SDS011;5807;51.606;7.624;2022-12-29T09:32:25;1.17;;;1.10;;
11500;SDS011;5807;51.606;7.624;2022-12-29T09:34:54;1.90;;;1.40;;
11500;SDS011;5807;51.606;7.624;2022-12-29T09:37:21;2.13;;;1.40;;
11500;SDS011;5807;51.606;7.624;2022-12-29T09:39:48;1.30;;;1.20;;
11500;SDS011;5807;51.606;7.624;2022-12-29T09:42:17;2.57;;;1.63;;
11500;SDS011;5807;51.606;7.624;2022-12-29T09:44:48;2.13;;;1.40;;
11500;SDS011;5807;51.606;7.624;2022-12-29T09:47:18;3.03;;;1.20;;
11500;SDS011;5807;51.606;7.624;2022-12-29T09:49:47;1.33;;;1.20;;
11500;SDS011;5807;51.606;7.624;2022-12-29T09:52:18;3.23;;;1.30;;
11500;SDS011;5807;51.606;7.624;2022-12-29T09:54:48;1.13;;;1.03;;
11500;SDS011;5807;51.606;7.624;2022-12-29T09:57:18;3.87;;;1.50;;
11500;SDS011;5807;51.606;7.624;2022-12-29T09:59:47;5.87;;;1.87;;
11500;SDS011;5807;51.606;7.624;2022-12-29T10:02:21;5.90;;;1.67;;
11500;SDS011;5807;51.606;7.624;2022-12-29T10:04:50;2.50;;;1.10;;
11500;SDS011;5807;51.606;7.624;2022-12-29T10:07:22;2.20;;;1.50;;
11500;SDS011;5807;51.606;7.624;2022-12-29T10:09:53;2.67;;;1.30;;
11500;SDS011;5807;51.606;7.624;2022-12-29T10:12:26;2.47;;;1.23;;
11500;SDS011;5807;51.606;7.624;2022-12-29T10:14:58;2.53;;;1.40;;
11500;SDS011;5807;51.606;7.624;2022-12-29T10:17:31;4.50;;;2.23;;
11500;SDS011;5807;51.606;7.624;2022-12-29T10:20:11;3.70;;;1.73;;
11500;SDS011;5807;51.606;7.624;2022-12-29T10:22:45;4.53;;;1.43;;
11500;SDS011;5807;51.606;7.624;2022-12-29T10:25:16;2.47;;;1.20;;
11500;SDS011;5807;51.606;7.624;2022-12-29T10:27:44;3.70;;;1.63;;
11500;SDS011;5807;51.606;7.624;2022-12-29T10:30:13;3.57;;;1.33;;
11500;SDS011;5807;51.606;7.624;2022-12-29T10:32:43;2.40;;;1.67;;
11500;SDS011;5807;51.606;7.624;2022-12-29T10:35:12;1.67;;;1.20;;
11500;SDS011;5807;51.606;7.624;2022-12-29T10:37:42;3.17;;;1.30;;
11500;SDS011;5807;51.606;7.624;2022-12-29T10:40:14;3.60;;;1.27;;
11500;SDS011;5807;51.606;7.624;2022-12-29T10:42:43;1.93;;;1.20;;
11500;SDS011;5807;51.606;7.624;2022-12-29T10:45:12;3.47;;;1.50;;
11500;SDS011;5807;51.606;7.624;2022-12-29T10:47:50;0.90;;;0.90;;
11500;SDS011;5807;51.606;7.624;2022-12-29T10:50:19;2.87;;;1.23;;
11500;SDS011;5807;51.606;7.624;2022-12-29T10:52:46;2.10;;;1.30;;
11500;SDS011;5807;51.606;7.624;2022-12-29T10:55:15;2.83;;;1.60;;
11500;SDS011;5807;51.606;7.624;2022-12-29T10:57:44;3.37;;;1.30;;
11500;SDS011;5807;51.606;7.624;2022-12-29T11:02:52;2.53;;;1.50;;
11500;SDS011;5807;51.606;7.624;2022-12-29T11:05:25;4.30;;;1.53;;
11500;SDS011;5807;51.606;7.624;2022-12-29T11:07:58;3.90;;;1.70;;
11500;SDS011;5807;51.606;7.624;2022-12-29T11:10:30;3.37;;;1.20;;
11500;SDS011;5807;51.606;7.624;2022-12-29T11:13:02;5.70;;;1.67;;
11500;SDS011;5807;51.606;7.624;2022-12-29T11:15:37;6.57;;;1.70;;
11500;SDS011;5807;51.606;7.624;2022-12-29T11:18:05;1.97;;;1.20;;
11500;SDS011;5807;51.606;7.624;2022-12-29T11:20:43;2.57;;;1.30;;
11500;SDS011;5807;51.606;7.624;2022-12-29T11:23:20;4.67;;;1.83;;
11500;SDS011;5807;51.606;7.624;2022-12-29T11:25:52;2.80;;;1.50;;
11500;SDS011;5807;51.606;7.624;2022-12-29T11:28:32;3.10;;;1.50;;
11500;SDS011;5807;51.606;7.624;2022-12-29T11:31:00;3.70;;;1.73;;
11500;SDS011;5807;51.606;7.624;2022-12-29T11:33:27;7.07;;;1.67;;
11500;SDS011;5807;51.606;7.624;2022-12-29T11:35:56;4.63;;;1.30;;
11500;SDS011;5807;51.606;7.624;2022-12-29T11:38:26;2.03;;;1.40;;
11500;SDS011;5807;51.606;7.624;2022-12-29T11:40:56;2.97;;;1.53;;
11500;SDS011;5807;51.606;7.624;2022-12-29T11:43:25;2.97;;;1.20;;
11500;SDS011;5807;51.606;7.624;2022-12-29T11:45:58;4.00;;;1.50;;
11500;SDS011;5807;51.606;7.624;2022-12-29T11:48:29;1.37;;;1.33;;
11500;SDS011;5807;51.606;7.624;2022-12-29T11:50:58;5.43;;;1.77;;
11500;SDS011;5807;51.606;7.624;2022-12-29T11:53:26;2.93;;;1.27;;
11500;SDS011;5807;51.606;7.624;2022-12-29T11:55:54;3.67;;;1.53;;
11500;SDS011;5807;51.606;7.624;2022-12-29T11:58:29;10.20;;;1.57;;
11500;SDS011;5807;51.606;7.624;2022-12-29T12:00:57;1.50;;;1.20;;
11500;SDS011;5807;51.606;7.624;2022-12-29T12:03:26;2.53;;;1.60;;
11500;SDS011;5807;51.606;7.624;2022-12-29T12:05:56;4.70;;;1.60;;
11500;SDS011;5807;51.606;7.624;2022-12-29T12:08:28;2.13;;;1.67;;
11500;SDS011;5807;51.606;7.624;2022-12-29T12:10:58;3.47;;;1.40;;
11500;SDS011;5807;51.606;7.624;2022-12-29T12:13:31;1.40;;;1.30;;
11500;SDS011;5807;51.606;7.624;2022-12-29T12:16:02;4.70;;;1.73;;
11500;SDS011;5807;51.606;7.624;2022-12-29T12:18:32;3.37;;;1.50;;
11500;SDS011;5807;51.606;7.624;2022-12-29T12:21:04;4.77;;;1.50;;
11500;SDS011;5807;51.606;7.624;2022-12-29T12:23:36;2.00;;;1.20;;
11500;SDS011;5807;51.606;7.624;2022-12-29T12:26:09;5.07;;;2.00;;
11500;SDS011;5807;51.606;7.624;2022-12-29T12:28:40;2.07;;;1.27;;
11500;SDS011;5807;51.606;7.624;2022-12-29T12:31:13;4.77;;;1.47;;
11500;SDS011;5807;51.606;7.624;2022-12-29T12:33:42;7.03;;;1.77;;
11500;SDS011;5807;51.606;7.624;2022-12-29T12:36:19;2.07;;;1.70;;
11500;SDS011;5807;51.606;7.624;2022-12-29T12:38:49;4.20;;;1.53;;
11500;SDS011;5807;51.606;7.624;2022-12-29T12:41:20;6.17;;;1.77;;
11500;SDS011;5807;51.606;7.624;2022-12-29T12:43:54;4.70;;;2.67;;
11500;SDS011;5807;51.606;7.624;2022-12-29T12:46:37;4.53;;;1.43;;
11500;SDS011;5807;51.606;7.624;2022-12-29T12:52:01;3.90;;;1.83;;
11500;SDS011;5807;51.606;7.624;2022-12-29T12:54:35;2.20;;;1.10;;
11500;SDS011;5807;51.606;7.624;2022-12-29T12:57:10;2.53;;;0.90;;
11500;SDS011;5807;51.606;7.624;2022-12-29T12:59:46;4.13;;;1.90;;
11500;SDS011;5807;51.606;7.624;2022-12-29T13:02:20;3.90;;;1.20;;
11500;SDS011;5807;51.606;7.624;2022-12-29T13:04:53;2.67;;;1.40;;
11500;SDS011;5807;51.606;7.624;2022-12-29T13:07:26;3.13;;;1.43;;
11500;SDS011;5807;51.606;7.624;2022-12-29T13:10:01;1.90;;;1.30;;
11500;SDS011;5807;51.606;7.624;2022-12-29T13:12:34;3.90;;;1.40;;
11500;SDS011;5807;51.606;7.624;2022-12-29T13:15:08;2.00;;;1.30;;
11500;SDS011;5807;51.606;7.624;2022-12-29T13:17:40;4.40;;;1.70;;
11500;SDS011;5807;51.606;7.624;2022-12-29T13:20:12;4.80;;;1.70;;
11500;SDS011;5807;51.606;7.624;2022-12-29T13:22:46;4.20;;;2.27;;
11500;SDS011;5807;51.606;7.624;2022-12-29T13:25:19;4.20;;;1.53;;
11500;SDS011;5807;51.606;7.624;2022-12-29T13:27:48;3.77;;;1.50;;
11500;SDS011;5807;51.606;7.624;2022-12-29T13:30:21;3.67;;;1.40;;
11500;SDS011;5807;51.606;7.624;2022-12-29T13:32:51;4.50;;;1.57;;
11500;SDS011;5807;51.606;7.624;2022-12-29T13:35:24;6.50;;;1.77;;
11500;SDS011;5807;51.606;7.624;2022-12-29T13:37:52;4.17;;;1.60;;
11500;SDS011;5807;51.606;7.624;2022-12-29T13:40:21;4.43;;;1.60;;
11500;SDS011;5807;51.606;7.624;2022-12-29T13:42:49;3.43;;;1.67;;
11500;SDS011;5807;51.606;7.624;2022-12-29T13:45:18;3.53;;;1.73;;
11500;SDS011;5807;51.606;7.624;2022-12-29T13:47:47;6.37;;;2.23;;
11500;SDS011;5807;51.606;7.624;2022-12-29T13:50:19;2.03;;;1.40;;
11500;SDS011;5807;51.606;7.624;2022-12-29T13:52:48;6.93;;;2.00;;
11500;SDS011;5807;51.606;7.624;2022-12-29T13:55:21;3.83;;;1.27;;
11500;SDS011;5807;51.606;7.624;2022-12-29T13:57:51;2.47;;;1.20;;
11500;SDS011;5807;51.606;7.624;2022-12-29T14:00:19;2.93;;;1.50;;
11500;SDS011;5807;51.606;7.624;2022-12-29T14:02:54;2.87;;;1.60;;
11500;SDS011;5807;51.606;7.624;2022-12-29T14:05:30;2.10;;;1.30;;
11500;SDS011;5807;51.606;7.624;2022-12-29T14:07:58;2.40;;;1.37;;
11500;SDS011;5807;51.606;7.624;2022-12-29T14:10:29;3.30;;;1.40;;
11500;SDS011;5807;51.606;7.624;2022-12-29T14:13:05;3.90;;;2.30;;
11500;SDS011;5807;51.606;7.624;2022-12-29T14:15:33;5.37;;;1.60;;
11500;SDS011;5807;51.606;7.624;2022-12-29T14:18:12;4.90;;;1.63;;
11500;SDS011;5807;51.606;7.624;2022-12-29T14:20:46;4.73;;;1.60;;
11500;SDS011;5807;51.606;7.624;2022-12-29T14:23:17;6.63;;;1.80;;
11500;SDS011;5807;51.606;7.624;2022-12-29T14:25:59;4.50;;;1.90;;
11500;SDS011;5807;51.606;7.624;2022-12-29T14:28:27;3.13;;;1.60;;
11500;SDS011;5807;51.606;7.624;2022-12-29T14:30:55;4.07;;;1.70;;
11500;SDS011;5807;51.606;7.624;2022-12-29T14:33:25;1.27;;;1.17;;
11500;SDS011;5807;51.606;7.624;2022-12-29T14:35:52;2.53;;;1.50;;
11500;SDS011;5807;51.606;7.624;2022-12-29T14:38:21;4.57;;;2.40;;
11500;SDS011;5807;51.606;7.624;2022-12-29T14:40:49;1.87;;;1.33;;
11500;SDS011;5807;51.606;7.624;2022-12-29T14:43:18;5.87;;;2.30;;
11500;SDS011;5807;51.606;7.624;2022-12-29T14:45:51;4.33;;;1.70;;
11500;SDS011;5807;51.606;7.624;2022-12-29T14:48:29;6.87;;;1.67;;
11500;SDS011;5807;51.606;7.624;2022-12-29T14:50:57;3.57;;;1.70;;
11500;SDS011;5807;51.606;7.624;2022-12-29T14:56:18;1.93;;;1.40;;
11500;SDS011;5807;51.606;7.624;2022-12-29T14:58:48;3.20;;;1.50;;
11500;SDS011;5807;51.606;7.624;2022-12-29T15:01:18;1.77;;;1.50;;
11500;SDS011;5807;51.606;7.624;2022-12-29T15:03:47;4.33;;;1.80;;
11500;SDS011;5807;51.606;7.624;2022-12-29T15:06:15;4.07;;;1.73;;
11500;SDS011;5807;51.606;7.624;2022-12-29T15:08:46;4.43;;;1.80;;
11500;SDS011;5807;51.606;7.624;2022-12-29T15:11:15;5.13;;;1.90;;
11500;SDS011;5807;51.606;7.624;2022-12-29T15:13:43;4.17;;;1.67;;
11500;SDS011;5807;51.606;7.624;2022-12-29T15:16:20;13.03;;;3.23;;
11500;SDS011;5807;51.606;7.624;2022-12-29T15:18:49;4.57;;;1.60;;
11500;SDS011;5807;51.606;7.624;2022-12-29T15:21:16;2.30;;;1.40;;
11500;SDS011;5807;51.606;7.624;2022-12-29T15:23:44;6.13;;;1.83;;
11500;SDS011;5807;51.606;7.624;2022-12-29T15:26:12;3.03;;;1.60;;
11500;SDS011;5807;51.606;7.624;2022-12-29T15:28:46;2.57;;;1.47;;